Time;durP1;ratioP1;P1;durP2;ratioP2;P2;SDS_P1;SDS_P2;PMS_P1;PMS_P2;Temp;Humidity;BMP_temperature;BMP_pressure;BME280_temperature;BME280_humidity;BME280_pressure;Samples;Min_cycle;Max_cycle;Signal;HPM_P1;HPM_P2
2022/04/28 00:01:58;;;;;;;14.30;6.22;;;;;;;5.83;89.95;102743.41;6307601;22;20014;-76
2022/04/28 00:04:23;;;;;;;13.57;6.70;;;;;;;5.83;90.32;102745.25;6303805;22;20095;-76
2022/04/28 00:06:48;;;;;;;11.77;6.93;;;;;;;5.85;89.15;102749.44;6308805;22;20003;-76
2022/04/28 00:09:14;;;;;;;12.40;6.60;;;;;;;5.77;88.99;102732.47;6329470;22;20017;-76
2022/04/28 00:11:39;;;;;;;13.98;6.93;;;;;;;5.82;89.36;102740.91;6336563;22;20041;-76
2022/04/28 00:14:07;;;;;;;13.63;7.10;;;;;;;5.83;89.18;102764.66;6336493;22;20009;-76
2022/04/28 00:16:34;;;;;;;10.93;6.20;;;;;;;5.75;89.71;102755.66;6302370;22;20391;-76
2022/04/28 00:19:00;;;;;;;12.50;6.60;;;;;;;5.76;89.92;102758.19;6309003;22;20027;-76
2022/04/28 00:21:25;;;;;;;11.30;7.57;;;;;;;5.70;90.24;102755.25;6334771;22;20002;-76
2022/04/28 00:23:51;;;;;;;11.00;6.07;;;;;;;5.62;90.20;102755.91;6329577;22;20007;-76
2022/04/28 00:26:16;;;;;;;14.18;7.15;;;;;;;5.54;91.00;102761.91;6308657;22;20394;-76
2022/04/28 00:28:41;;;;;;;11.18;6.60;;;;;;;5.42;91.05;102752.34;6329529;22;20100;-76
2022/04/28 00:31:06;;;;;;;14.02;7.30;;;;;;;5.39;91.77;102749.97;6336365;22;20027;-76
2022/04/28 00:33:32;;;;;;;13.35;6.65;;;;;;;5.46;91.95;102758.22;6334864;22;20003;-76
2022/04/28 00:35:57;;;;;;;15.30;7.38;;;;;;;5.44;92.30;102752.22;6329473;22;20429;-76
2022/04/28 00:38:22;;;;;;;15.25;7.45;;;;;;;5.46;92.77;102744.94;6334663;22;20089;-76
2022/04/28 00:40:48;;;;;;;11.45;6.75;;;;;;;5.47;92.70;102749.28;6336421;22;19999;-76
2022/04/28 00:43:19;;;;;;;11.20;6.53;;;;;;;5.44;92.19;102753.03;6329437;22;20031;-76
2022/04/28 00:45:48;;;;;;;12.70;6.53;;;;;;;5.40;92.78;102741.03;6336612;22;20002;-76
2022/04/28 00:51:00;;;;;;;11.15;6.47;;;;;;;5.36;93.00;102752.88;6336167;22;20030;-76
2022/04/28 00:53:28;;;;;;;12.82;6.45;;;;;;;5.31;93.22;102756.91;6336757;22;20010;-76
2022/04/28 00:55:53;;;;;;;19.75;7.38;;;;;;;5.26;93.00;102749.34;6330643;22;20101;-76
2022/04/28 01:01:41;;;;;;;16.08;7.03;;;;;;;5.11;93.67;102740.88;6330875;22;20504;-76
2022/04/28 01:04:06;;;;;;;14.35;7.07;;;;;;;5.09;94.26;102737.53;6337538;22;20002;-76
2022/04/28 01:06:32;;;;;;;13.30;6.60;;;;;;;5.07;94.42;102742.13;6337544;22;20003;-76
2022/04/28 01:08:57;;;;;;;14.15;6.65;;;;;;;5.02;94.40;102736.38;6330351;22;20085;-76
2022/04/28 01:11:24;;;;;;;12.40;6.80;;;;;;;5.03;94.57;102748.66;6309799;22;20027;-76
2022/04/28 01:13:49;;;;;;;11.48;6.50;;;;;;;4.99;95.13;102739.28;6335629;22;20313;-76
2022/04/28 01:19:36;;;;;;;13.55;6.72;;;;;;;4.93;95.47;102745.13;6337730;22;20070;-76
2022/04/28 01:22:03;;;;;;;13.45;8.18;;;;;;;4.91;95.35;102741.72;6329429;22;20007;-76
2022/04/28 01:24:29;;;;;;;11.13;6.07;;;;;;;4.86;95.63;102741.28;6337325;22;20013;-76
2022/04/28 01:26:56;;;;;;;12.77;6.63;;;;;;;4.85;96.40;102743.09;6330502;22;20043;-76
2022/04/28 01:29:21;;;;;;;14.95;6.93;;;;;;;4.82;96.29;102746.00;6337295;22;20038;-76
2022/04/28 01:31:47;;;;;;;11.75;6.82;;;;;;;4.80;96.79;102741.81;6337379;22;20003;-76
2022/04/28 01:34:12;;;;;;;15.30;7.13;;;;;;;4.80;96.36;102752.41;6303211;22;20458;-76
2022/04/28 01:36:37;;;;;;;13.13;7.13;;;;;;;4.75;96.45;102744.84;6335858;22;20093;-76
2022/04/28 01:39:06;;;;;;;17.63;8.02;;;;;;;4.76;96.53;102756.28;6337939;22;20029;-76
2022/04/28 01:41:32;;;;;;;10.23;6.75;;;;;;;4.72;96.81;102753.06;6325317;22;20101;-76
2022/04/28 01:43:57;;;;;;;11.65;6.70;;;;;;;4.72;96.08;102749.56;6335857;22;20003;-76
2022/04/28 01:46:22;;;;;;;18.02;7.00;;;;;;;4.72;97.04;102760.16;6330505;22;20603;-76
2022/04/28 01:54:58;;;;;;;15.02;8.20;;;;;;;4.66;96.87;102742.97;6279345;22;20347;-76
2022/04/28 01:57:26;;;;;;;13.63;6.78;;;;;;;4.68;97.12;102751.63;6309853;22;20030;-76
2022/04/28 01:59:51;;;;;;;14.18;7.18;;;;;;;4.60;97.33;102749.59;6303249;22;20002;-76
2022/04/28 02:02:17;;;;;;;18.92;6.80;;;;;;;4.57;97.76;102741.91;6309628;22;20005;-76
2022/04/28 02:04:42;;;;;;;14.35;7.70;;;;;;;4.62;97.78;102755.63;6335966;22;20013;-76
2022/04/28 02:07:07;;;;;;;16.95;7.32;;;;;;;4.58;97.63;102742.75;6331574;22;20035;-76
2022/04/28 02:09:33;;;;;;;14.63;7.57;;;;;;;4.53;98.14;102747.59;6337093;22;20011;-76
2022/04/28 02:11:58;;;;;;;12.77;7.10;;;;;;;4.45;98.29;102753.53;6330465;22;20068;-76
2022/04/28 02:14:24;;;;;;;13.98;7.15;;;;;;;4.46;98.42;102759.69;6337136;22;20003;-76
2022/04/28 02:16:49;;;;;;;10.60;7.10;;;;;;;4.41;99.46;102752.13;6337270;22;20385;-76
2022/04/28 02:19:15;;;;;;;14.40;7.43;;;;;;;4.42;98.66;102748.50;6330511;22;20011;-76
2022/04/28 02:21:40;;;;;;;13.68;6.57;;;;;;;4.47;99.23;102756.06;6337227;22;20098;-76
2022/04/28 02:24:05;;;;;;;14.85;7.47;;;;;;;4.45;99.10;102763.31;6330109;22;20043;-76
2022/04/28 02:26:31;;;;;;;16.70;8.07;;;;;;;4.38;99.57;102749.72;6336047;22;20098;-76
2022/04/28 02:28:56;;;;;;;16.92;8.20;;;;;;;4.37;99.90;102747.22;6337121;22;20250;-76
2022/04/28 02:31:21;;;;;;;11.20;7.10;;;;;;;4.41;100.00;102754.78;6303165;22;20003;-76
2022/04/28 02:33:47;;;;;;;12.88;7.38;;;;;;;4.45;99.10;102758.00;6337711;22;20085;-76
2022/04/28 02:36:15;;;;;;;15.35;7.28;;;;;;;4.45;98.88;102755.34;6337149;22;20423;-76
2022/04/28 02:38:40;;;;;;;10.38;6.80;;;;;;;4.44;98.77;102754.50;6302924;22;20139;-76
2022/04/28 02:41:05;;;;;;;15.88;7.32;;;;;;;4.38;98.82;102748.88;6337122;22;20003;-76
2022/04/28 02:43:30;;;;;;;15.15;7.90;;;;;;;4.34;98.90;102754.44;6330322;22;20042;-76
2022/04/28 02:45:58;;;;;;;13.55;7.65;;;;;;;4.34;99.67;102758.91;6337138;22;20007;-76
2022/04/28 02:48:24;;;;;;;19.75;7.25;;;;;;;4.26;100.00;102756.00;6309189;22;20010;-76
2022/04/28 02:50:49;;;;;;;13.38;7.25;;;;;;;4.16;100.00;102742.69;6330139;22;20046;-76
2022/04/28 02:53:14;;;;;;;15.23;6.97;;;;;;;4.24;100.00;102750.84;6337065;22;19998;-76
2022/04/28 02:55:40;;;;;;;17.00;8.25;;;;;;;4.20;100.00;102751.22;6334022;22;20007;-76
2022/04/28 02:58:06;;;;;;;17.27;8.25;;;;;;;4.17;100.00;102751.47;6333563;22;20042;-76
2022/04/28 03:00:31;;;;;;;15.00;8.35;;;;;;;4.20;100.00;102746.78;6337112;22;20014;-76
2022/04/28 03:02:56;;;;;;;18.02;7.18;;;;;;;4.18;99.69;102748.69;6330198;22;20002;-76
2022/04/28 03:05:22;;;;;;;18.42;7.75;;;;;;;4.22;99.30;102744.00;6309502;22;20037;-76
2022/04/28 03:11:09;;;;;;;19.55;7.93;;;;;;;4.23;98.92;102748.31;6337260;22;20022;-76
2022/04/28 03:13:35;;;;;;;13.07;7.35;;;;;;;4.19;100.00;102752.19;6309269;22;19999;-76
2022/04/28 03:16:01;;;;;;;17.23;7.70;;;;;;;4.11;100.00;102752.81;6329658;22;20063;-76
2022/04/28 03:21:48;;;;;;;14.63;7.43;;;;;;;4.03;100.00;102757.88;6336921;22;20029;-76
2022/04/28 03:24:14;;;;;;;14.98;7.68;;;;;;;3.96;100.00;102754.88;6336994;22;20011;-75
2022/04/28 03:26:39;;;;;;;20.50;8.20;;;;;;;4.00;100.00;102758.13;6337661;22;20078;-76
2022/04/28 03:29:05;;;;;;;15.45;8.52;;;;;;;3.98;100.00;102752.13;6328922;22;20435;-76
2022/04/28 03:34:53;;;;;;;19.67;7.95;;;;;;;3.97;100.00;102751.28;6337360;22;20036;-76
2022/04/28 03:37:18;;;;;;;12.98;8.43;;;;;;;4.00;100.00;102750.19;6309256;22;20026;-76
2022/04/28 03:39:44;;;;;;;17.27;8.10;;;;;;;4.06;100.00;102762.09;6336853;22;20052;-76
2022/04/28 03:45:32;;;;;;;14.05;8.20;;;;;;;3.98;100.00;102752.97;6337080;22;20160;-76
2022/04/28 03:47:57;;;;;;;20.27;9.00;;;;;;;3.93;100.00;102746.34;6329963;22;20006;-76
2022/04/28 03:50:22;;;;;;;18.02;8.90;;;;;;;3.99;100.00;102751.16;6309246;22;20006;-76
2022/04/28 03:52:48;;;;;;;14.40;8.23;;;;;;;4.02;100.00;102751.75;6331182;22;20090;-76
2022/04/28 03:55:13;;;;;;;21.83;9.32;;;;;;;4.04;100.00;102762.19;6308367;22;20030;-76
2022/04/28 03:57:38;;;;;;;17.83;9.13;;;;;;;4.01;100.00;102759.81;6336856;22;20064;-76
2022/04/28 04:00:05;;;;;;;18.40;8.85;;;;;;;3.97;100.00;102761.88;6329876;22;20351;-76
2022/04/28 04:02:30;;;;;;;26.67;9.75;;;;;;;3.99;100.00;102773.16;6309004;22;20090;-76
2022/04/28 04:04:56;;;;;;;15.45;8.38;;;;;;;3.92;100.00;102763.19;6336819;22;20078;-76
2022/04/28 04:07:21;;;;;;;15.98;8.73;;;;;;;3.90;100.00;102768.63;6302425;22;20364;-76
2022/04/28 04:09:46;;;;;;;17.17;8.43;;;;;;;3.93;100.00;102772.81;6308849;22;20006;-76
2022/04/28 04:15:33;;;;;;;15.40;8.73;;;;;;;3.86;100.00;102767.19;6336757;22;20018;-76
2022/04/28 04:18:00;;;;;;;15.63;8.35;;;;;;;3.86;100.00;102763.69;6332547;22;20003;-76
2022/04/28 04:20:26;;;;;;;15.45;8.75;;;;;;;3.83;100.00;102758.66;6334466;22;19998;-76
2022/04/28 04:22:52;;;;;;;19.10;8.75;;;;;;;3.88;100.00;102775.00;6309009;22;20007;-76
2022/04/28 04:25:18;;;;;;;20.25;8.25;;;;;;;3.92;100.00;102776.44;6329764;22;20011;-75
2022/04/28 04:27:43;;;;;;;13.55;7.97;;;;;;;3.98;100.00;102775.94;6308598;22;20034;-76
2022/04/28 04:32:53;;;;;;;21.90;9.07;;;;;;;4.12;100.00;102769.53;6330059;22;20389;-76
2022/04/28 04:35:18;;;;;;;15.43;8.30;;;;;;;4.23;100.00;102780.09;6336680;22;20030;-76
2022/04/28 04:37:43;;;;;;;22.10;9.02;;;;;;;4.34;100.00;102777.44;6302378;22;20029;-76
2022/04/28 04:40:11;;;;;;;16.52;8.50;;;;;;;4.47;100.00;102771.97;6308680;22;20020;-76
2022/04/28 04:42:36;;;;;;;16.80;8.48;;;;;;;4.58;99.91;102775.38;6336320;22;20593;-76
2022/04/28 04:48:24;;;;;;;13.38;8.50;;;;;;;4.93;99.33;102792.84;6336247;22;20018;-76
2022/04/28 04:50:50;;;;;;;16.23;8.77;;;;;;;5.09;99.59;102793.19;6329502;22;20084;-76
2022/04/28 04:53:15;;;;;;;18.90;8.70;;;;;;;5.24;98.51;102793.72;6336314;22;20428;-76
2022/04/28 04:55:41;;;;;;;15.40;8.18;;;;;;;5.38;98.15;102793.38;6336212;22;20053;-76
2022/04/28 05:01:29;;;;;;;15.73;9.00;;;;;;;5.93;96.70;102798.38;6336362;22;20048;-75
2022/04/28 05:03:54;;;;;;;16.20;8.43;;;;;;;6.20;95.52;102793.28;6301893;22;20015;-75
2022/04/28 05:06:19;;;;;;;20.77;8.45;;;;;;;6.58;93.94;102808.41;6308245;22;20007;-75
2022/04/28 05:08:45;;;;;;;19.02;9.13;;;;;;;6.95;92.49;102802.41;6307065;22;20015;-76
2022/04/28 05:11:10;;;;;;;17.05;7.82;;;;;;;7.27;90.03;102800.25;6330651;22;20420;-76
2022/04/28 05:13:35;;;;;;;18.80;8.75;;;;;;;7.62;87.95;102804.91;6308588;22;20006;-76
2022/04/28 05:16:01;;;;;;;23.02;10.93;;;;;;;7.92;86.56;102808.25;6301584;22;20073;-76
2022/04/28 05:18:30;;;;;;;16.02;9.32;;;;;;;8.24;84.51;102815.78;6308418;22;20037;-76
2022/04/28 05:20:55;;;;;;;17.80;8.90;;;;;;;8.49;83.08;102814.25;6308379;22;20013;-76
2022/04/28 05:23:20;;;;;;;14.52;8.40;;;;;;;8.81;81.92;102816.38;6301808;22;20026;-76
2022/04/28 05:25:46;;;;;;;15.00;8.88;;;;;;;9.14;80.17;102822.81;6335894;22;20064;-76
2022/04/28 05:31:33;;;;;;;15.13;8.90;;;;;;;10.02;76.78;102826.97;6336138;22;20331;-76
2022/04/28 05:33:58;;;;;;;16.02;8.18;;;;;;;10.40;75.29;102824.78;6335775;22;20082;-76
2022/04/28 05:36:24;;;;;;;18.53;8.77;;;;;;;10.84;73.70;102839.56;6327850;22;20339;-77
2022/04/28 05:38:50;;;;;;;15.85;8.70;;;;;;;11.24;71.33;102837.03;6335670;22;20245;-77
2022/04/28 05:41:15;;;;;;;14.40;8.73;;;;;;;11.64;69.29;102838.81;6330277;22;20072;-76
2022/04/28 05:46:25;;;;;;;15.48;8.45;;;;;;;12.33;64.86;102843.41;6337306;22;20072;-76
2022/04/28 05:48:51;;;;;;;18.00;9.00;;;;;;;12.66;63.48;102846.72;6329936;22;20018;-76
2022/04/28 05:51:18;;;;;;;13.75;8.57;;;;;;;13.02;61.42;102849.66;6337202;22;20006;-76
2022/04/28 05:53:43;;;;;;;16.17;10.38;;;;;;;13.33;59.77;102857.63;6304772;22;20331;-76
2022/04/28 05:59:30;;;;;;;16.67;8.73;;;;;;;14.21;57.19;102853.28;6337243;22;20340;-76
2022/04/28 06:01:56;;;;;;;16.17;9.30;;;;;;;14.53;56.78;102860.09;6330439;22;20010;-77
2022/04/28 06:04:22;;;;;;;15.82;8.73;;;;;;;14.69;55.04;102862.53;6337122;22;20007;-76
2022/04/28 06:06:47;;;;;;;15.05;9.60;;;;;;;14.73;54.95;102844.13;6330241;22;20018;-76
2022/04/28 06:09:12;;;;;;;17.30;9.77;;;;;;;15.08;54.12;102869.34;6309471;22;20002;-77
2022/04/28 06:11:37;;;;;;;18.43;10.03;;;;;;;15.47;52.07;102861.53;6337284;22;20240;-76
2022/04/28 06:14:03;;;;;;;21.35;9.32;;;;;;;15.96;50.19;102879.53;6330431;22;20324;-76
2022/04/28 06:16:28;;;;;;;16.63;9.00;;;;;;;16.38;49.60;102873.03;6309357;22;20031;-76
2022/04/28 06:18:53;;;;;;;13.23;9.18;;;;;;;16.82;48.80;102879.84;6334052;22;20042;-77
2022/04/28 06:24:40;;;;;;;14.88;8.90;;;;;;;17.79;45.29;102887.31;6337072;22;20240;-77
2022/04/28 06:27:05;;;;;;;20.33;9.63;;;;;;;18.16;43.19;102880.31;6330206;22;20007;-76
2022/04/28 06:29:31;;;;;;;14.37;9.30;;;;;;;18.55;43.07;102894.75;6336757;22;20310;-77
2022/04/28 06:31:56;;;;;;;18.35;9.40;;;;;;;18.89;42.99;102879.97;6330262;22;20273;-77
2022/04/28 06:34:22;;;;;;;18.63;9.87;;;;;;;19.26;41.71;102889.06;6336964;22;20085;-76
2022/04/28 06:36:47;;;;;;;16.75;9.40;;;;;;;19.69;40.90;102889.13;6337060;22;20265;-77
2022/04/28 06:39:13;;;;;;;18.60;9.88;;;;;;;20.06;39.49;102897.28;6330122;22;20002;-76
2022/04/28 06:41:38;;;;;;;17.00;9.80;;;;;;;20.30;37.97;102890.09;6309426;22;20012;-77
2022/04/28 06:44:04;;;;;;;13.30;8.82;;;;;;;20.55;38.00;102893.53;6335283;22;20019;-77
2022/04/28 06:46:29;;;;;;;20.07;9.50;;;;;;;20.99;37.64;102891.41;6304126;22;20037;-77
2022/04/28 06:48:54;;;;;;;16.70;9.50;;;;;;;21.38;35.85;102887.22;6336934;22;20314;-77
2022/04/28 06:51:20;;;;;;;15.00;8.90;;;;;;;21.69;36.19;102896.94;6329876;22;20249;-77
2022/04/28 06:53:45;;;;;;;14.03;8.30;;;;;;;22.06;35.89;102889.31;6335220;22;20321;-77
2022/04/28 06:56:10;;;;;;;15.03;8.63;;;;;;;22.19;34.00;102899.13;6335275;22;20248;-76
2022/04/28 06:58:37;;;;;;;12.73;8.43;;;;;;;22.36;33.53;102893.75;6330174;22;20717;-76
2022/04/28 07:01:03;;;;;;;14.50;8.50;;;;;;;22.55;32.41;102900.63;6336989;22;20332;-76
2022/04/28 07:03:28;;;;;;;14.05;8.88;;;;;;;22.83;32.59;102911.56;6330033;22;20128;-77
2022/04/28 07:05:53;;;;;;;14.77;8.47;;;;;;;23.23;31.86;102916.06;6336967;22;20476;-76
2022/04/28 07:08:19;;;;;;;15.70;8.05;;;;;;;23.45;30.87;102918.88;6336934;22;20263;-77
2022/04/28 07:10:44;;;;;;;14.15;7.85;;;;;;;23.47;30.30;102917.56;6329968;22;20042;-76
2022/04/28 07:16:31;;;;;;;15.70;8.40;;;;;;;23.51;29.88;102923.34;6336841;22;20140;-78
2022/04/28 07:18:57;;;;;;;12.15;8.05;;;;;;;23.00;30.85;102924.41;6309054;22;20010;-77
2022/04/28 07:21:22;;;;;;;15.38;8.02;;;;;;;22.19;31.43;102926.38;6309116;22;20368;-77
2022/04/28 07:23:47;;;;;;;17.17;8.45;;;;;;;21.70;32.82;102923.13;6329834;22;20011;-77
2022/04/28 07:29:34;;;;;;;14.65;8.90;;;;;;;22.71;31.73;102934.50;6336665;22;20046;-76
2022/04/28 07:31:59;;;;;;;15.77;8.18;;;;;;;23.21;30.40;102929.16;6309335;22;20424;-76
2022/04/28 07:34:25;;;;;;;14.82;8.07;;;;;;;23.24;30.19;102936.84;6332998;22;20009;-75
2022/04/28 07:36:50;;;;;;;16.23;9.03;;;;;;;23.32;29.86;102947.34;6333664;22;20010;-75
2022/04/28 07:39:15;;;;;;;16.70;9.18;;;;;;;23.38;29.92;102935.41;6309059;22;20249;-76
2022/04/28 07:41:41;;;;;;;14.87;8.63;;;;;;;23.51;30.06;102947.91;6330073;22;20010;-76
2022/04/28 07:44:06;;;;;;;14.88;8.10;;;;;;;23.42;29.69;102952.97;6336911;22;20233;-76
2022/04/28 07:46:31;;;;;;;19.00;8.93;;;;;;;23.66;29.96;102945.44;6309013;22;20002;-77
2022/04/28 07:52:19;;;;;;;18.95;8.52;;;;;;;24.58;28.61;102960.38;6336658;22;20757;-76
2022/04/28 07:54:45;;;;;;;13.95;7.68;;;;;;;25.54;27.72;102955.78;6330149;22;20440;-77
2022/04/28 07:57:10;;;;;;;15.80;8.43;;;;;;;26.35;26.25;102958.22;6336502;22;19999;-76
2022/04/28 07:59:36;;;;;;;16.90;9.10;;;;;;;27.05;25.59;102956.75;6332048;22;20445;-77
2022/04/28 08:02:03;;;;;;;17.48;9.10;;;;;;;27.26;24.76;102949.34;6307073;22;20077;-76
2022/04/28 08:04:29;;;;;;;14.80;7.93;;;;;;;27.70;24.22;102962.50;6336292;22;20082;-76
2022/04/28 08:06:54;;;;;;;14.93;8.55;;;;;;;27.92;24.84;102959.44;6329683;22;20376;-77
2022/04/28 08:09:20;;;;;;;18.25;7.82;;;;;;;28.12;23.64;102962.13;6336833;22;20014;-77
2022/04/28 08:11:45;;;;;;;14.88;7.93;;;;;;;28.40;23.56;102966.16;6336731;22;20003;-77
2022/04/28 08:17:32;;;;;;;15.10;8.25;;;;;;;29.65;21.79;102972.16;6336657;22;20282;-78
2022/04/28 08:19:57;;;;;;;11.37;7.83;;;;;;;29.92;20.90;102978.75;6329985;22;20014;-78
2022/04/28 08:22:22;;;;;;;13.47;7.57;;;;;;;30.38;20.79;102964.41;6336537;22;20019;-77
2022/04/28 08:24:48;;;;;;;14.57;7.53;;;;;;;31.04;21.10;102979.22;6333082;22;20002;-77
2022/04/28 08:27:13;;;;;;;13.20;7.40;;;;;;;30.96;20.08;102975.22;6305822;22;20393;-77
2022/04/28 08:29:38;;;;;;;14.33;8.20;;;;;;;31.14;19.63;102977.09;6334748;22;20313;-77
2022/04/28 08:32:04;;;;;;;13.83;6.93;;;;;;;30.88;20.16;102984.16;6329798;22;20015;-78
2022/04/28 08:34:29;;;;;;;14.95;7.90;;;;;;;31.18;20.01;102979.28;6336587;22;20233;-77
2022/04/28 08:36:55;;;;;;;13.43;8.18;;;;;;;31.52;19.65;102990.06;6308871;22;20099;-77
2022/04/28 08:39:20;;;;;;;12.37;8.03;;;;;;;31.75;19.62;102991.84;6329583;22;20013;-78
2022/04/28 08:45:07;;;;;;;12.48;7.78;;;;;;;31.95;18.98;102980.38;6336951;22;20136;-77
2022/04/28 08:47:32;;;;;;;15.85;8.02;;;;;;;32.07;18.53;102987.34;6336235;22;20045;-76
2022/04/28 08:49:58;;;;;;;13.90;7.80;;;;;;;32.36;18.99;102985.09;6305224;22;20011;-77
2022/04/28 08:52:27;;;;;;;12.95;8.32;;;;;;;31.71;18.95;102988.88;6332940;22;20007;-76
2022/04/28 08:54:54;;;;;;;16.88;8.02;;;;;;;31.65;18.71;102986.47;6336250;22;20007;-77
2022/04/28 08:57:22;;;;;;;14.02;8.00;;;;;;;31.89;19.08;102983.56;6329236;22;20034;-77
2022/04/28 08:59:48;;;;;;;14.50;8.02;;;;;;;31.92;18.84;102977.41;6336252;22;20003;-77
2022/04/28 09:02:14;;;;;;;15.55;7.90;;;;;;;31.51;19.56;102983.69;6336348;22;20003;-77
2022/04/28 09:04:40;;;;;;;16.00;8.45;;;;;;;31.39;19.15;102986.13;6329255;22;20067;-77
2022/04/28 09:07:07;;;;;;;14.15;7.78;;;;;;;31.31;19.71;102981.28;6336028;22;20007;-76
2022/04/28 09:09:32;;;;;;;11.85;7.53;;;;;;;31.73;18.70;102988.56;6329340;22;20011;-77
2022/04/28 09:12:03;;;;;;;11.75;6.75;;;;;;;32.22;19.26;102978.72;6336228;22;20014;-77
2022/04/28 09:14:30;;;;;;;10.55;7.40;;;;;;;32.47;18.20;102992.06;6308316;22;20007;-78
2022/04/28 09:16:59;;;;;;;9.88;6.72;;;;;;;32.52;18.36;102980.88;6330347;22;20007;-78
2022/04/28 09:22:51;;;;;;;14.35;6.82;;;;;;;33.21;17.64;102991.72;6337676;22;20014;-77
2022/04/28 09:25:19;;;;;;;10.57;6.40;;;;;;;32.47;18.07;102980.97;6309669;22;20034;-78
2022/04/28 09:27:47;;;;;;;13.13;6.45;;;;;;;31.54;18.35;102979.50;6334850;22;20007;-78
2022/04/28 09:30:12;;;;;;;10.85;6.80;;;;;;;31.17;17.72;102970.19;6333944;22;20063;-77
2022/04/28 09:35:59;;;;;;;11.73;6.43;;;;;;;27.61;22.66;102959.47;6337337;22;20361;-76
2022/04/28 09:38:25;;;;;;;14.98;7.20;;;;;;;26.24;24.62;102957.31;6309392;22;20054;-76
2022/04/28 09:46:55;;;;;;;10.60;6.50;;;;;;;29.64;19.99;102968.56;6330946;22;20018;-78
2022/04/28 09:49:23;;;;;;;17.40;6.93;;;;;;;30.34;19.27;102968.88;6335614;22;20433;-77
2022/04/28 09:51:57;;;;;;;10.80;6.75;;;;;;;29.97;19.96;102957.72;6337395;22;20316;-77
2022/04/28 09:54:24;;;;;;;10.10;6.05;;;;;;;29.08;20.24;102968.22;6303269;22;20086;-77
2022/04/28 09:56:50;;;;;;;9.77;6.53;;;;;;;28.66;20.94;102970.41;6337445;22;20007;-78
2022/04/28 09:59:15;;;;;;;10.07;6.57;;;;;;;28.25;21.76;102955.19;6332310;22;20102;-77
2022/04/28 10:01:40;;;;;;;11.27;6.57;;;;;;;28.00;21.67;102950.59;6335595;22;20795;-77
2022/04/28 10:04:07;;;;;;;11.98;6.85;;;;;;;27.11;22.00;102963.06;6337344;22;20030;-77
2022/04/28 10:06:36;;;;;;;11.40;6.80;;;;;;;26.29;23.53;102953.75;6303164;22;20021;-77
2022/04/28 10:09:09;;;;;;;10.88;6.50;;;;;;;26.20;24.41;102949.88;6309602;22;20056;-77
2022/04/28 10:11:35;;;;;;;11.90;6.78;;;;;;;25.93;24.09;102936.31;6335820;22;20018;-77
2022/04/28 10:17:37;;;;;;;12.02;7.18;;;;;;;25.75;24.87;102945.00;6337561;22;20022;-77
2022/04/28 10:20:11;;;;;;;12.80;6.85;;;;;;;25.82;24.63;102948.34;6330492;22;20059;-78
2022/04/28 10:22:38;;;;;;;13.15;7.43;;;;;;;25.71;24.29;102935.63;6337278;22;20450;-77
2022/04/28 10:34:12;;;;;;;9.43;6.25;;;;;;;25.00;26.08;102931.25;6337198;22;20014;-77
2022/04/28 10:36:54;;;;;;;11.38;7.28;;;;;;;24.80;26.39;102936.50;6309395;22;20094;-77
2022/04/28 10:39:41;;;;;;;11.52;6.85;;;;;;;25.12;25.58;102931.06;6329696;22;20056;-77
2022/04/28 10:42:25;;;;;;;11.55;7.53;;;;;;;25.10;25.90;102933.25;6309403;22;20010;-77
2022/04/28 10:44:54;;;;;;;11.82;7.40;;;;;;;24.92;26.43;102931.72;6330278;22;20075;-77
2022/04/28 10:50:41;;;;;;;13.90;8.38;;;;;;;24.46;26.91;102918.63;6337159;22;20098;-77
2022/04/28 10:53:10;;;;;;;10.83;7.70;;;;;;;24.11;27.26;102922.56;6336950;22;20003;-76
2022/04/28 10:55:43;;;;;;;11.40;7.75;;;;;;;24.20;27.66;102909.28;6336863;22;20264;-76
2022/04/28 10:58:18;;;;;;;;;;;;;;;25.15;27.13;102924.25;6330716;22;20049;-76
2022/04/28 11:00:51;;;;;;;12.48;8.02;;;;;;;24.48;26.57;102921.94;6337084;22;20396;-77
2022/04/28 11:03:47;;;;;;;13.35;8.00;;;;;;;25.15;27.36;102922.34;6330084;22;20431;-77
2022/04/28 11:06:21;;;;;;;13.73;8.10;;;;;;;24.91;27.01;102923.75;6309247;22;20014;-77
2022/04/28 11:08:58;;;;;;;13.73;8.73;;;;;;;26.00;26.27;102916.88;6335468;22;20312;-78
2022/04/28 11:11:28;;;;;;;11.68;8.25;;;;;;;26.35;24.02;102914.31;6334274;22;20010;-78
2022/04/28 11:13:57;;;;;;;13.57;8.25;;;;;;;26.14;25.03;102902.41;6336880;22;20003;-78
2022/04/28 11:16:23;;;;;;;13.27;8.07;;;;;;;24.99;25.65;102907.69;6302425;22;20034;-78
2022/04/28 11:18:49;;;;;;;11.43;7.93;;;;;;;24.26;28.62;102905.50;6336923;22;20006;-78
2022/04/28 11:21:15;;;;;;;14.77;8.80;;;;;;;23.90;27.80;102906.97;6336763;22;20002;-77
2022/04/28 11:23:46;;;;;;;14.68;8.63;;;;;;;23.64;28.20;102898.41;6329841;22;20081;-77
2022/04/28 11:29:36;;;;;;;11.15;8.18;;;;;;;27.21;25.26;102894.41;6337150;22;20378;-78
2022/04/28 11:32:02;;;;;;;11.88;7.63;;;;;;;28.58;21.99;102896.66;6336795;22;20301;-78
2022/04/28 11:37:56;;;;;;;13.18;8.95;;;;;;;29.07;21.86;102908.72;6336193;22;20017;-77
2022/04/28 11:40:24;;;;;;;10.48;8.82;;;;;;;28.46;22.08;102901.69;6336751;22;20309;-78
2022/04/28 11:43:00;;;;;;;15.30;9.00;;;;;;;27.42;23.73;102896.00;6329798;22;20331;-78
2022/04/28 11:48:52;;;;;;;13.20;8.40;;;;;;;25.13;25.81;102891.66;6336516;22;20343;-78
2022/04/28 11:51:21;;;;;;;12.50;8.48;;;;;;;24.76;26.57;102908.00;6336673;22;20009;-78
2022/04/28 11:53:47;;;;;;;17.55;9.10;;;;;;;24.51;26.27;102899.53;6329783;22;20026;-77
2022/04/28 11:56:21;;;;;;;13.43;8.63;;;;;;;23.78;27.98;102894.25;6308715;22;19998;-77
2022/04/28 11:58:51;;;;;;;19.00;9.10;;;;;;;23.30;28.44;102883.97;6336595;22;20015;-78
2022/04/28 12:01:20;;;;;;;13.45;8.50;;;;;;;24.85;26.68;102905.59;6329776;22;20007;-77
2022/04/28 12:03:51;;;;;;;14.07;8.85;;;;;;;25.60;26.05;102890.88;6309194;22;20331;-78
2022/04/28 12:06:18;;;;;;;14.00;8.70;;;;;;;25.02;25.76;102901.69;6334869;22;20074;-77
2022/04/28 12:08:52;;;;;;;13.07;9.40;;;;;;;24.16;27.87;102897.19;6304633;22;19999;-76
2022/04/28 12:14:22;;;;;;;14.05;8.90;;;;;;;23.68;27.52;102888.63;6329638;22;20478;-78
2022/04/28 12:19:53;;;;;;;18.00;8.52;;;;;;;24.15;29.46;102892.81;6329893;22;20061;-77
2022/04/28 12:22:30;;;;;;;14.07;9.95;;;;;;;24.41;27.54;102889.31;6336517;22;20090;-76
2022/04/28 12:25:04;;;;;;;14.80;9.77;;;;;;;25.35;26.80;102880.59;6336578;22;20020;-76
2022/04/28 12:27:37;;;;;;;12.35;8.63;;;;;;;26.16;25.82;102880.19;6329635;22;20086;-77
2022/04/28 12:30:08;;;;;;;14.15;8.55;;;;;;;26.23;25.44;102878.84;6308994;22;20316;-77
2022/04/28 12:32:41;;;;;;;10.93;8.95;;;;;;;26.38;24.38;102869.06;6329673;22;20011;-77
2022/04/28 12:35:07;;;;;;;13.80;8.63;;;;;;;26.07;24.11;102877.16;6335483;22;20017;-77
2022/04/28 12:37:38;;;;;;;10.93;8.10;;;;;;;25.77;26.10;102874.31;6336530;22;20034;-77
2022/04/28 12:40:04;;;;;;;13.07;7.95;;;;;;;26.30;24.67;102872.28;6329458;22;20086;-77
2022/04/28 12:42:44;;;;;;;14.63;8.25;;;;;;;26.35;24.33;102872.34;6336405;22;20056;-78
2022/04/28 12:45:10;;;;;;;12.60;8.57;;;;;;;26.69;23.93;102876.25;6329580;22;20011;-77
2022/04/28 12:47:38;;;;;;;13.70;8.80;;;;;;;26.72;24.58;102870.19;6336394;22;20006;-76
2022/04/28 12:50:20;;;;;;;9.98;7.55;;;;;;;26.52;24.05;102868.25;6336158;22;20009;-78
2022/04/28 12:52:45;;;;;;;13.02;8.27;;;;;;;25.52;23.95;102867.56;6329453;22;20010;-77
2022/04/28 12:55:11;;;;;;;15.55;8.95;;;;;;;25.00;24.51;102862.81;6336131;22;20331;-77
2022/04/28 12:57:36;;;;;;;12.45;8.20;;;;;;;24.34;25.87;102864.91;6306937;22;20002;-77
2022/04/28 13:00:07;;;;;;;13.50;7.90;;;;;;;23.73;27.10;102864.16;6331179;22;20003;-77
2022/04/28 13:02:33;;;;;;;18.23;9.15;;;;;;;23.66;28.38;102868.94;6336205;22;20007;-76
2022/04/28 13:05:12;;;;;;;12.38;8.30;;;;;;;24.27;26.72;102871.59;6301900;22;20018;-78
2022/04/28 13:11:01;;;;;;;15.20;8.25;;;;;;;24.48;25.56;102856.28;6329461;22;20053;-77
2022/04/28 13:13:27;;;;;;;12.55;7.40;;;;;;;24.85;24.95;102854.44;6336356;22;20035;-77
2022/04/28 13:19:18;;;;;;;11.57;7.60;;;;;;;24.89;27.01;102846.56;6336129;22;20094;-76
2022/04/28 13:21:45;;;;;;;13.38;8.48;;;;;;;24.74;26.73;102830.81;6308504;22;20320;-78